Time;durP1;ratioP1;P1;durP2;ratioP2;P2;SDS_P1;SDS_P2;PMS_P1;PMS_P2;Temp;Humidity;BMP_temperature;BMP_pressure;BME280_temperature;BME280_humidity;BME280_pressure;Samples;Min_cycle;Max_cycle;Signal;HPM_P1;HPM_P2
2023/07/17 00:02:08;;;;;;;4.10;2.30;;;21.20;99.90;;;;;;2586758;54;20758;31
2023/07/17 00:04:45;;;;;;;2.78;2.47;;;21.10;99.90;;;;;;2604592;46;20944;31
2023/07/17 00:07:22;;;;;;;4.05;2.80;;;21.10;99.90;;;;;;2586278;54;20026;31
2023/07/17 00:09:57;;;;;;;3.50;2.90;;;21.10;99.90;;;;;;2586503;54;20038;31
2023/07/17 00:12:33;;;;;;;4.72;2.50;;;21.10;99.90;;;;;;2590824;46;20901;31
2023/07/17 00:15:10;;;;;;;4.37;3.43;;;21.10;99.90;;;;;;2586679;54;20027;31
2023/07/17 00:17:47;;;;;;;3.50;3.20;;;21.00;99.90;;;;;;2684667;39;20477;31
2023/07/17 00:20:23;;;;;;;4.15;2.95;;;21.00;99.90;;;;;;2586471;54;20889;31
2023/07/17 00:23:01;;;;;;;2.80;2.55;;;21.00;99.90;;;;;;2585590;54;20847;31
2023/07/17 00:25:41;;;;;;;4.50;2.47;;;21.00;99.90;;;;;;2586514;54;20034;31
2023/07/17 00:28:17;;;;;;;3.80;3.20;;;21.00;99.90;;;;;;2585920;54;20827;31
2023/07/17 00:30:52;;;;;;;5.60;3.00;;;21.00;99.90;;;;;;2585712;54;20780;31
2023/07/17 00:33:30;;;;;;;4.67;2.83;;;21.00;99.90;;;;;;2585806;54;21013;31
2023/07/17 00:36:05;;;;;;;4.53;3.00;;;21.00;99.90;;;;;;2585512;54;20031;31
2023/07/17 00:38:42;;;;;;;3.70;3.23;;;21.00;99.90;;;;;;2585852;54;20037;31
2023/07/17 00:41:18;;;;;;;3.03;2.75;;;21.00;99.90;;;;;;2585663;54;20026;31
2023/07/17 00:43:53;;;;;;;9.93;2.90;;;21.00;99.90;;;;;;2586653;54;20875;31
2023/07/17 00:46:29;;;;;;;3.70;2.90;;;21.00;99.90;;;;;;2605027;46;20026;31
2023/07/17 00:49:08;;;;;;;3.30;3.00;;;20.90;99.90;;;;;;2586522;54;20026;31
2023/07/17 00:51:42;;;;;;;6.05;3.10;;;20.90;99.90;;;;;;2586404;54;20782;31
2023/07/17 00:54:21;;;;;;;3.88;3.00;;;20.90;99.90;;;;;;2586284;54;20830;31
2023/07/17 00:56:55;;;;;;;6.00;3.45;;;20.90;99.90;;;;;;2586559;54;20862;31
2023/07/17 00:59:34;;;;;;;4.68;2.65;;;20.90;99.90;;;;;;2586439;54;20030;31
2023/07/17 01:02:08;;;;;;;4.03;3.10;;;20.90;99.90;;;;;;2586239;54;20033;31
2023/07/17 01:04:46;;;;;;;7.90;4.00;;;20.80;99.90;;;;;;2586581;54;20026;31
2023/07/17 01:07:21;;;;;;;6.10;3.75;;;20.80;99.90;;;;;;2586540;54;20027;31
2023/07/17 01:10:00;;;;;;;;;;;20.80;99.90;;;;;;2586719;54;20097;31
2023/07/17 01:12:35;;;;;;;5.50;3.50;;;20.70;99.90;;;;;;2605247;46;19934;31
2023/07/17 01:15:12;;;;;;;4.30;3.40;;;20.60;99.90;;;;;;2586533;54;20037;31
2023/07/17 01:17:51;;;;;;;7.32;3.30;;;20.60;99.90;;;;;;2586012;54;20042;31
2023/07/17 01:20:28;;;;;;;5.53;3.53;;;20.60;99.90;;;;;;2604880;46;20046;31
2023/07/17 01:23:06;;;;;;;4.88;3.45;;;20.70;99.90;;;;;;2585551;54;20049;31
2023/07/17 01:25:43;;;;;;;6.53;3.67;;;20.60;99.90;;;;;;2586428;54;20057;31
2023/07/17 01:28:18;;;;;;;4.43;2.87;;;20.70;99.90;;;;;;2586317;54;20034;31
2023/07/17 01:31:02;;;;;;;6.05;3.17;;;20.70;99.90;;;;;;2586468;54;20049;31
2023/07/17 01:33:36;;;;;;;3.38;2.75;;;20.70;99.90;;;;;;2586495;54;20806;31
2023/07/17 01:36:12;;;;;;;4.85;2.90;;;20.80;99.90;;;;;;2586615;54;20859;31
2023/07/17 01:38:51;;;;;;;4.35;2.80;;;20.80;99.90;;;;;;2585514;54;20023;31
2023/07/17 01:41:25;;;;;;;4.25;3.65;;;20.80;99.90;;;;;;2585469;54;20846;31
2023/07/17 01:43:59;;;;;;;3.78;2.65;;;20.90;99.90;;;;;;2586463;54;20033;31
2023/07/17 01:46:35;;;;;;;4.40;3.35;;;20.80;99.90;;;;;;2585510;54;20751;31
2023/07/17 01:49:11;;;;;;;6.18;2.92;;;20.90;99.90;;;;;;2585491;54;20041;31
2023/07/17 01:51:45;;;;;;;;;;;20.90;99.90;;;;;;2586527;54;20868;31
2023/07/17 01:54:25;;;;;;;4.60;3.20;;;20.90;99.90;;;;;;2586428;54;20628;31
2023/07/17 01:56:59;;;;;;;6.23;3.80;;;20.90;99.90;;;;;;2586182;54;20882;31
2023/07/17 01:59:35;;;;;;;6.67;3.60;;;20.90;99.90;;;;;;2586173;54;20034;31
2023/07/17 02:02:16;;;;;;;5.25;3.75;;;20.90;99.90;;;;;;2586220;54;20895;31
2023/07/17 02:04:54;;;;;;;4.63;3.42;;;20.80;99.90;;;;;;2597645;46;20237;31
2023/07/17 02:07:30;;;;;;;7.40;3.85;;;20.80;99.90;;;;;;2586160;54;20934;31
2023/07/17 02:10:15;;;;;;;7.13;3.60;;;20.80;99.90;;;;;;2586338;54;20022;31
2023/07/17 02:12:49;;;;;;;9.25;3.85;;;20.80;99.90;;;;;;2604573;46;20057;31
2023/07/17 02:15:23;;;;;;;7.75;4.40;;;20.80;99.90;;;;;;2593454;46;20054;31
2023/07/17 02:17:56;;;;;;;7.80;4.72;;;20.70;99.90;;;;;;2585360;54;20779;31
2023/07/17 02:20:32;;;;;;;5.90;4.10;;;20.60;99.90;;;;;;2586160;54;20033;31
2023/07/17 02:23:06;;;;;;;5.75;3.70;;;20.60;99.90;;;;;;2586289;54;20880;31
2023/07/17 02:25:44;;;;;;;5.50;3.20;;;20.60;99.90;;;;;;2585826;54;20029;31
2023/07/17 02:28:19;;;;;;;4.78;2.80;;;20.50;99.90;;;;;;2585191;54;20034;31
2023/07/17 02:30:58;;;;;;;7.95;3.60;;;20.60;99.90;;;;;;2586162;54;20875;31
2023/07/17 02:33:34;;;;;;;6.32;3.15;;;20.50;99.90;;;;;;2585136;54;20938;31
2023/07/17 02:36:11;;;;;;;;;;;20.50;99.90;;;;;;2586472;54;20916;31
2023/07/17 02:38:47;;;;;;;5.70;2.90;;;20.60;99.90;;;;;;2585967;54;19935;31
2023/07/17 02:41:33;;;;;;;4.25;2.50;;;20.50;99.90;;;;;;2586170;54;20851;31
2023/07/17 02:44:08;;;;;;;3.22;2.65;;;20.60;99.90;;;;;;2585961;54;20980;31
2023/07/17 02:46:46;;;;;;;3.20;2.90;;;20.60;99.90;;;;;;2586401;54;20759;31
2023/07/17 02:49:22;;;;;;;3.88;2.63;;;20.60;99.90;;;;;;2586086;54;20066;31
2023/07/17 02:51:59;;;;;;;6.25;3.22;;;20.60;99.90;;;;;;2586139;54;20089;31
2023/07/17 02:54:36;;;;;;;5.70;2.65;;;20.60;99.90;;;;;;2604251;47;20023;31
2023/07/17 02:57:17;;;;;;;6.07;2.97;;;20.60;99.90;;;;;;2586159;54;20842;31
2023/07/17 02:59:54;;;;;;;6.78;2.72;;;20.60;99.90;;;;;;2585149;54;20755;31
2023/07/17 03:02:28;;;;;;;4.40;2.65;;;20.60;99.90;;;;;;2586095;54;20026;31
2023/07/17 03:05:04;;;;;;;3.65;3.05;;;20.70;99.90;;;;;;2585924;54;20113;31
2023/07/17 03:07:40;;;;;;;5.70;2.90;;;20.70;99.90;;;;;;2585882;54;21003;31
2023/07/17 03:10:14;;;;;;;4.10;2.63;;;20.70;99.90;;;;;;2585890;54;21140;31
2023/07/17 03:12:53;;;;;;;3.50;2.45;;;20.70;99.90;;;;;;2603947;47;20110;31
2023/07/17 03:15:29;;;;;;;6.00;2.90;;;20.60;99.90;;;;;;2586091;54;20754;31
2023/07/17 03:18:06;;;;;;;5.10;2.40;;;20.70;99.90;;;;;;2604745;47;20133;31
2023/07/17 03:20:46;;;;;;;5.30;2.80;;;20.70;99.90;;;;;;2586948;54;20033;31
2023/07/17 03:23:22;;;;;;;3.88;2.78;;;20.70;99.90;;;;;;2586776;54;20949;31
2023/07/17 03:25:59;;;;;;;4.33;2.23;;;20.80;99.90;;;;;;2587003;54;20028;31
2023/07/17 03:28:35;;;;;;;3.30;2.20;;;20.80;99.90;;;;;;2605181;46;20873;31
2023/07/17 03:31:14;;;;;;;3.10;2.10;;;20.80;99.90;;;;;;2585985;54;20250;31
2023/07/17 03:33:49;;;;;;;4.60;2.45;;;20.70;99.90;;;;;;2586060;54;20745;31
2023/07/17 03:36:24;;;;;;;;;;;20.70;99.90;;;;;;2586173;54;20234;31
2023/07/17 03:39:00;;;;;;;5.05;2.25;;;20.70;99.90;;;;;;2586970;54;20757;31
2023/07/17 03:41:41;;;;;;;3.35;2.45;;;20.70;99.90;;;;;;2586603;54;20939;31
2023/07/17 03:44:20;;;;;;;3.45;2.25;;;20.70;99.90;;;;;;2587061;46;20026;31
2023/07/17 03:46:56;;;;;;;3.97;2.60;;;20.70;99.90;;;;;;2586628;54;20759;31
2023/07/17 03:49:36;;;;;;;7.20;3.45;;;20.70;99.90;;;;;;2703220;39;21630;31
2023/07/17 03:52:14;;;;;;;4.35;3.22;;;20.60;99.90;;;;;;2585908;54;20797;31
2023/07/17 03:54:55;;;;;;;7.57;5.35;;;20.60;99.90;;;;;;2598505;46;20041;31
2023/07/17 03:57:32;;;;;;;5.93;3.90;;;20.60;99.90;;;;;;2586748;54;20013;31
2023/07/17 04:00:13;;;;;;;4.78;4.10;;;20.60;99.90;;;;;;2585924;54;20972;31
2023/07/17 04:02:47;;;;;;;9.17;5.10;;;20.60;99.90;;;;;;2585748;54;20038;31
2023/07/17 04:05:37;;;;;;;7.60;4.45;;;20.60;99.90;;;;;;2586727;54;20766;31
2023/07/17 04:08:11;;;;;;;7.97;4.90;;;20.50;99.90;;;;;;2605015;46;20910;31
2023/07/17 04:10:46;;;;;;;4.70;3.73;;;20.50;99.90;;;;;;2586465;54;20037;31
2023/07/17 04:13:22;;;;;;;4.60;3.80;;;20.50;99.90;;;;;;2586469;54;20249;31
2023/07/17 04:16:05;;;;;;;6.25;3.83;;;20.50;99.90;;;;;;2586712;54;20279;31
2023/07/17 04:18:41;;;;;;;7.10;4.00;;;20.50;99.90;;;;;;2586845;54;20831;31
2023/07/17 04:21:14;;;;;;;9.10;4.60;;;20.50;99.90;;;;;;2585662;54;20031;31
2023/07/17 04:23:53;;;;;;;7.17;4.00;;;20.70;99.90;;;;;;2586751;54;20905;31
2023/07/17 04:26:38;;;;;;;6.03;3.47;;;20.90;99.90;;;;;;2586464;54;20034;31
2023/07/17 04:29:14;;;;;;;7.55;3.95;;;21.10;99.90;;;;;;2586308;54;20066;31
2023/07/17 04:31:53;;;;;;;4.95;3.72;;;21.40;99.90;;;;;;2585552;54;20889;31
2023/07/17 04:34:27;;;;;;;5.50;3.58;;;21.60;99.90;;;;;;2585723;54;20031;31
2023/07/17 04:37:02;;;;;;;5.40;3.55;;;21.90;99.90;;;;;;2586450;54;20034;31
2023/07/17 04:39:38;;;;;;;4.60;3.20;;;22.00;99.90;;;;;;2604876;46;20030;31
2023/07/17 04:42:13;;;;;;;5.38;3.88;;;22.20;99.90;;;;;;2586087;54;20909;31
2023/07/17 04:44:48;;;;;;;7.67;3.77;;;22.40;99.90;;;;;;2586515;54;20031;31
2023/07/17 04:47:29;;;;;;;;;;;22.70;99.90;;;;;;2586632;54;20247;31
2023/07/17 04:50:08;;;;;;;5.80;3.50;;;22.90;99.90;;;;;;2589971;46;20755;31
2023/07/17 04:52:48;;;;;;;6.65;3.30;;;23.10;99.90;;;;;;2586471;54;20041;31
2023/07/17 04:55:21;;;;;;;5.85;2.95;;;23.30;99.90;;;;;;2586523;54;20940;31
2023/07/17 04:57:59;;;;;;;4.37;3.20;;;23.50;99.90;;;;;;2586295;54;20875;31
2023/07/17 05:00:36;;;;;;;5.40;3.25;;;23.70;99.90;;;;;;2586255;54;20238;31
2023/07/17 05:03:16;;;;;;;5.65;3.42;;;23.80;99.90;;;;;;2586051;54;20823;31
2023/07/17 05:05:54;;;;;;;5.90;3.20;;;23.90;99.90;;;;;;2586512;54;20042;31
2023/07/17 05:08:32;;;;;;;6.30;3.75;;;24.10;99.90;;;;;;2604818;46;20026;31
2023/07/17 05:11:08;;;;;;;4.47;3.00;;;24.30;99.90;;;;;;2604682;46;20881;31
2023/07/17 05:13:51;;;;;;;5.63;3.30;;;24.50;99.90;;;;;;2586369;54;20089;31
2023/07/17 05:16:25;;;;;;;5.25;3.20;;;24.70;99.90;;;;;;2684024;39;21732;31
2023/07/17 05:19:07;;;;;;;9.00;3.37;;;24.90;99.90;;;;;;2602874;46;20820;31
2023/07/17 05:21:45;;;;;;;6.60;3.03;;;25.00;99.90;;;;;;2586276;54;20293;31
2023/07/17 05:24:21;;;;;;;4.77;3.00;;;25.10;99.90;;;;;;2586109;54;20026;31
2023/07/17 05:26:59;;;;;;;5.00;3.00;;;25.10;99.90;;;;;;2586323;54;20231;31
2023/07/17 05:29:34;;;;;;;5.30;3.15;;;25.30;99.90;;;;;;2586434;54;20026;31
2023/07/17 05:32:11;;;;;;;4.37;3.07;;;25.50;99.90;;;;;;2684237;39;21512;31
2023/07/17 05:34:48;;;;;;;5.30;2.95;;;25.70;99.90;;;;;;2585352;54;20691;31
2023/07/17 05:37:26;;;;;;;4.55;2.90;;;25.90;99.90;;;;;;2586447;54;20052;31
2023/07/17 05:40:03;;;;;;;6.07;3.53;;;26.00;99.90;;;;;;2586287;54;20058;31
2023/07/17 05:42:36;;;;;;;7.43;2.83;;;26.20;99.90;;;;;;2585784;54;20957;31
2023/07/17 05:45:14;;;;;;;5.55;2.95;;;26.30;99.90;;;;;;2683892;39;21671;31
2023/07/17 05:47:48;;;;;;;8.77;3.23;;;26.60;99.90;;;;;;2585349;54;20039;31
2023/07/17 05:50:27;;;;;;;4.95;3.15;;;26.70;99.90;;;;;;2585312;54;20246;31
2023/07/17 05:53:03;;;;;;;4.85;3.20;;;26.80;99.90;;;;;;2585332;54;20731;31
2023/07/17 05:55:41;;;;;;;9.23;3.43;;;27.00;99.90;;;;;;2586456;54;20862;31
2023/07/17 05:58:18;;;;;;;6.55;2.70;;;27.20;99.90;;;;;;2586494;54;20938;31
2023/07/17 06:00:55;;;;;;;5.90;2.80;;;27.30;99.90;;;;;;2586507;54;20727;31
2023/07/17 06:03:31;;;;;;;8.47;2.70;;;27.40;99.90;;;;;;2586289;54;20030;31
2023/07/17 06:06:14;;;;;;;8.75;2.90;;;27.70;99.90;;;;;;2585756;54;20057;31
2023/07/17 06:08:50;;;;;;;6.00;3.00;;;27.90;99.90;;;;;;2586478;54;20883;31
2023/07/17 06:11:26;;;;;;;6.13;2.70;;;28.00;99.90;;;;;;2684280;39;21577;31
2023/07/17 06:14:05;;;;;;;6.23;2.27;;;28.10;99.90;;;;;;2605129;46;21100;31
2023/07/17 06:16:57;;;;;;;5.15;2.45;;;28.20;99.90;;;;;;2586660;54;20968;31
2023/07/17 06:19:32;;;;;;;5.85;2.95;;;28.50;99.90;;;;;;2586381;54;20761;31
2023/07/17 06:22:11;;;;;;;5.43;2.80;;;28.70;99.90;;;;;;2585284;54;20030;31
2023/07/17 06:24:46;;;;;;;5.00;2.70;;;28.80;99.90;;;;;;2684094;39;21564;31
2023/07/17 06:27:23;;;;;;;8.43;3.20;;;29.00;99.90;;;;;;2605047;46;22138;31
2023/07/17 06:29:59;;;;;;;6.15;2.72;;;29.20;99.90;;;;;;2604907;46;20073;31
2023/07/17 06:32:35;;;;;;;5.32;2.95;;;29.20;99.90;;;;;;2596924;46;20839;31
2023/07/17 06:35:11;;;;;;;7.25;3.40;;;29.00;99.90;;;;;;2586160;54;20581;31
2023/07/17 06:37:50;;;;;;;5.43;2.57;;;28.70;99.90;;;;;;2586251;54;20029;31
2023/07/17 06:40:24;;;;;;;6.13;2.97;;;28.60;99.90;;;;;;2585954;54;20874;31
2023/07/17 06:43:00;;;;;;;6.72;2.63;;;28.40;99.90;;;;;;2586058;54;20042;31
2023/07/17 06:45:34;;;;;;;6.50;2.60;;;28.20;99.90;;;;;;2586029;54;20117;31
2023/07/17 06:48:13;;;;;;;8.35;3.30;;;28.20;99.90;;;;;;2601350;47;20035;31
2023/07/17 06:50:49;;;;;;;4.18;2.60;;;28.10;99.90;;;;;;2604846;47;20927;31
2023/07/17 06:53:29;;;;;;;7.45;3.15;;;28.10;99.90;;;;;;2586787;54;20036;31
2023/07/17 06:56:07;;;;;;;5.30;2.60;;;28.10;99.90;;;;;;2586900;54;20034;31
2023/07/17 06:58:43;;;;;;;4.68;2.40;;;28.10;99.90;;;;;;2586148;54;20935;31
2023/07/17 07:01:20;;;;;;;6.45;2.60;;;28.00;99.90;;;;;;2586104;54;20839;31
2023/07/17 07:03:56;;;;;;;7.70;3.08;;;28.10;99.90;;;;;;2585674;54;20873;31
2023/07/17 07:06:32;;;;;;;5.38;2.50;;;28.20;99.90;;;;;;2585508;54;20093;31
2023/07/17 07:09:13;;;;;;;5.80;3.05;;;28.10;99.90;;;;;;2586137;54;20874;31
2023/07/17 07:11:48;;;;;;;7.20;3.25;;;28.10;99.90;;;;;;2587027;54;20850;31
2023/07/17 07:14:31;;;;;;;7.32;3.05;;;28.00;99.90;;;;;;2586471;54;20093;31
2023/07/17 07:17:10;;;;;;;4.70;2.75;;;28.00;99.90;;;;;;2586916;54;20964;31
2023/07/17 07:19:46;;;;;;;5.55;3.25;;;27.90;99.90;;;;;;2586743;54;20025;31
2023/07/17 07:22:20;;;;;;;7.67;3.17;;;27.80;99.90;;;;;;2586856;54;20890;31
2023/07/17 07:25:05;;;;;;;5.90;2.70;;;27.80;99.90;;;;;;2604393;46;20246;31
2023/07/17 07:27:48;;;;;;;7.37;2.67;;;27.80;99.90;;;;;;2586590;54;20956;31
2023/07/17 07:30:27;;;;;;;6.47;2.70;;;27.80;99.90;;;;;;2703105;39;20663;31
2023/07/17 07:35:37;;;;;;;8.40;3.30;;;27.80;99.90;;;;;;2587004;54;21282;31
2023/07/17 07:38:14;;;;;;;4.30;2.60;;;28.00;99.90;;;;;;2586940;54;20934;31
2023/07/17 07:40:55;;;;;;;6.32;3.05;;;28.10;99.90;;;;;;2586493;54;20254;31
2023/07/17 07:43:29;;;;;;;4.90;2.70;;;28.10;99.90;;;;;;2585985;54;20060;31
2023/07/17 07:46:06;;;;;;;6.53;2.80;;;28.10;99.90;;;;;;2605221;46;20847;31
2023/07/17 07:48:44;;;;;;;8.30;3.45;;;28.20;99.90;;;;;;2586447;54;20027;31
2023/07/17 07:54:00;;;;;;;5.77;2.73;;;28.60;99.90;;;;;;2605332;46;20850;31
2023/07/17 07:56:47;;;;;;;5.70;3.30;;;28.60;99.90;;;;;;2586992;54;20898;31
2023/07/17 07:59:45;;;;;;;6.00;3.28;;;28.60;99.90;;;;;;2586619;54;21259;31
2023/07/17 08:02:23;;;;;;;6.82;2.88;;;28.50;99.90;;;;;;2588283;46;21302;31
2023/07/17 08:05:08;;;;;;;9.25;3.35;;;28.40;99.90;;;;;;2586387;54;20086;31
2023/07/17 08:07:51;;;;;;;7.55;2.67;;;28.40;99.90;;;;;;2586849;54;20033;31
2023/07/17 08:10:40;;;;;;;5.20;3.20;;;28.30;99.90;;;;;;2586082;54;20898;31
2023/07/17 08:13:20;;;;;;;8.65;3.25;;;28.30;99.90;;;;;;2683548;39;21567;31
2023/07/17 08:16:09;;;;;;;13.65;3.10;;;28.40;99.90;;;;;;2605190;46;20030;31
2023/07/17 08:18:53;;;;;;;6.37;2.90;;;28.40;99.90;;;;;;2586208;54;20990;31
2023/07/17 08:21:34;;;;;;;7.00;2.90;;;28.40;99.90;;;;;;2586502;54;20243;31
2023/07/17 08:26:51;;;;;;;5.65;2.75;;;28.40;99.90;;;;;;2585716;54;20739;31
2023/07/17 08:29:38;;;;;;;7.53;2.60;;;28.40;99.90;;;;;;2585662;54;20890;31
2023/07/17 08:35:16;;;;;;;6.93;2.90;;;28.50;99.90;;;;;;2586775;54;20893;31
2023/07/17 08:38:21;;;;;;;6.72;2.90;;;28.50;99.90;;;;;;2684059;39;21804;31
2023/07/17 08:41:05;;;;;;;5.55;2.90;;;28.50;99.90;;;;;;2586413;54;20037;31
2023/07/17 08:43:48;;;;;;;6.33;2.60;;;28.40;99.90;;;;;;2586661;54;20023;31
2023/07/17 08:46:31;;;;;;;10.37;3.20;;;28.40;99.90;;;;;;2698668;39;21620;31
2023/07/17 08:49:26;;;;;;;4.90;2.50;;;28.20;99.90;;;;;;2585788;54;20882;31
2023/07/17 08:52:06;;;;;;;7.68;2.80;;;28.10;99.90;;;;;;2585692;54;20029;31
2023/07/17 08:54:45;;;;;;;4.23;2.90;;;28.20;99.90;;;;;;2586851;54;20752;31
2023/07/17 09:00:33;;;;;;;6.88;2.72;;;28.30;99.90;;;;;;2586691;54;20898;31
2023/07/17 09:03:17;;;;;;;6.35;2.80;;;28.50;99.90;;;;;;2586459;54;20151;31
2023/07/17 09:06:10;;;;;;;7.30;2.75;;;28.70;99.90;;;;;;2604615;46;20165;31
2023/07/17 09:08:52;;;;;;;6.00;2.63;;;28.90;99.90;;;;;;2585781;54;20885;31
2023/07/17 09:11:44;;;;;;;4.90;2.72;;;29.10;99.90;;;;;;2586557;54;20947;31
2023/07/17 09:14:45;;;;;;;7.10;2.80;;;29.20;99.90;;;;;;2605078;46;20835;31
2023/07/17 09:17:25;;;;;;;8.65;2.63;;;29.30;99.90;;;;;;2586113;54;20824;31
2023/07/17 09:20:10;;;;;;;5.10;3.00;;;29.30;99.90;;;;;;2604636;46;20033;31
2023/07/17 09:22:58;;;;;;;6.17;2.30;;;29.30;99.90;;;;;;2590686;46;19934;31
2023/07/17 09:25:45;;;;;;;4.25;2.88;;;29.30;99.90;;;;;;2604671;46;20230;31
2023/07/17 09:28:31;;;;;;;5.40;3.07;;;29.40;99.90;;;;;;2586254;54;20939;31
2023/07/17 09:31:13;;;;;;;4.80;2.57;;;29.30;99.90;;;;;;2586589;54;20309;31
2023/07/17 09:33:49;;;;;;;5.60;2.25;;;29.30;99.90;;;;;;2586419;54;20022;31
2023/07/17 09:36:30;;;;;;;5.20;2.80;;;29.20;99.90;;;;;;2585752;54;20866;31
2023/07/17 09:39:12;;;;;;;5.60;3.15;;;29.20;99.90;;;;;;2585683;54;21372;31
2023/07/17 09:44:48;;;;;;;6.27;2.63;;;29.30;99.90;;;;;;2586056;54;20760;31
2023/07/17 09:47:37;;;;;;;6.43;3.38;;;29.70;99.90;;;;;;2585530;54;20866;31
2023/07/17 09:50:16;;;;;;;5.75;3.22;;;29.80;99.90;;;;;;2586375;54;20036;31
2023/07/17 09:52:54;;;;;;;5.73;2.50;;;30.00;99.90;;;;;;2589738;46;20030;31
2023/07/17 09:55:44;;;;;;;6.55;2.92;;;30.20;99.90;;;;;;2586088;54;20022;31
2023/07/17 10:01:00;;;;;;;4.95;2.72;;;30.60;99.90;;;;;;2586231;54;19935;31
2023/07/17 10:03:41;;;;;;;4.85;2.65;;;30.80;99.90;;;;;;2604236;46;20050;31
2023/07/17 10:08:56;;;;;;;5.35;2.88;;;31.20;99.90;;;;;;2586213;54;20023;31
2023/07/17 10:11:44;;;;;;;8.15;2.85;;;31.30;99.90;;;;;;2586430;54;20037;31
2023/07/17 10:14:27;;;;;;;7.50;3.00;;;31.50;99.90;;;;;;2604828;46;20647;31
2023/07/17 10:17:11;;;;;;;7.97;3.42;;;31.60;99.90;;;;;;2586337;54;21055;31
2023/07/17 10:20:03;;;;;;;6.80;3.03;;;31.70;99.90;;;;;;2586106;54;20101;31
2023/07/17 10:22:47;;;;;;;7.63;2.60;;;31.90;99.90;;;;;;2604989;46;21578;31
2023/07/17 10:25:37;;;;;;;5.20;2.40;;;32.00;99.90;;;;;;2683908;39;21792;31
2023/07/17 10:28:16;;;;;;;6.40;2.50;;;32.10;99.90;;;;;;2683980;39;21717;31
2023/07/17 10:30:53;;;;;;;5.60;3.30;;;32.20;99.90;;;;;;2603936;46;20115;31
2023/07/17 10:36:43;;;;;;;6.47;2.72;;;32.20;99.90;;;;;;2586472;54;20245;31
2023/07/17 10:39:25;;;;;;;6.20;3.30;;;32.10;99.90;;;;;;2586290;54;20935;31
2023/07/17 10:42:19;;;;;;;3.97;2.33;;;31.80;99.90;;;;;;2585847;54;20927;31
2023/07/17 10:45:15;;;;;;;5.20;3.30;;;31.60;99.90;;;;;;2587060;54;20029;31
2023/07/17 10:47:51;;;;;;;5.05;2.70;;;31.40;99.90;;;;;;2604625;47;20023;31
2023/07/17 10:50:30;;;;;;;4.63;2.58;;;31.30;99.90;;;;;;2586032;54;20952;31
2023/07/17 10:53:21;;;;;;;6.00;2.60;;;31.10;99.90;;;;;;2585742;54;20029;31
2023/07/17 10:56:04;;;;;;;5.90;2.85;;;30.80;99.90;;;;;;2585692;54;20921;31
2023/07/17 10:58:50;;;;;;;2.65;2.00;;;30.60;99.90;;;;;;2586099;54;20154;31
2023/07/17 11:01:59;;;;;;;4.70;2.80;;;30.70;99.90;;;;;;2754726;31;21766;31
2023/07/17 11:04:42;;;;;;;6.13;2.70;;;30.90;99.90;;;;;;2604351;47;20051;31
2023/07/17 11:07:37;;;;;;;6.10;3.00;;;31.20;99.90;;;;;;2604109;47;19934;31
2023/07/17 11:10:17;;;;;;;7.70;2.43;;;31.40;99.50;;;;;;2585760;54;20105;31
2023/07/17 11:12:58;;;;;;;7.97;3.10;;;31.50;99.50;;;;;;2585983;54;20875;31
2023/07/17 11:15:36;;;;;;;5.05;2.88;;;31.60;98.10;;;;;;2586291;54;20819;31
2023/07/17 11:18:22;;;;;;;5.20;2.50;;;31.50;97.40;;;;;;2586071;54;20899;31
2023/07/17 11:21:02;;;;;;;5.45;2.60;;;31.70;96.10;;;;;;2585096;54;20106;31
2023/07/17 11:23:38;;;;;;;7.30;2.90;;;31.80;96.00;;;;;;2586114;54;21293;31
2023/07/17 11:26:16;;;;;;;4.80;3.00;;;31.70;94.50;;;;;;2585543;54;20083;31
2023/07/17 11:28:49;;;;;;;4.68;2.50;;;31.70;94.60;;;;;;2585763;54;21003;31
2023/07/17 11:31:24;;;;;;;3.20;2.50;;;31.70;93.00;;;;;;2683777;39;20527;31
2023/07/17 11:34:09;;;;;;;4.37;2.47;;;31.70;93.10;;;;;;2604320;47;20038;31
2023/07/17 11:36:47;;;;;;;6.93;2.63;;;31.70;93.40;;;;;;2604433;47;20026;31
2023/07/17 11:39:20;;;;;;;5.03;2.63;;;31.90;93.40;;;;;;2604651;47;20831;31
2023/07/17 11:41:56;;;;;;;6.07;2.78;;;31.80;91.80;;;;;;2604951;46;20043;31
2023/07/17 11:44:32;;;;;;;6.35;2.60;;;31.70;91.50;;;;;;2586792;54;20030;31
2023/07/17 11:47:09;;;;;;;5.70;2.80;;;31.60;91.50;;;;;;2586760;54;20033;31
2023/07/17 11:49:47;;;;;;;5.22;2.92;;;31.40;91.80;;;;;;2605660;46;20879;31
2023/07/17 11:52:26;;;;;;;4.50;2.95;;;31.40;92.40;;;;;;2586633;54;20053;31
2023/07/17 11:55:00;;;;;;;6.63;3.00;;;31.50;92.40;;;;;;2586825;54;20033;31
2023/07/17 11:57:40;;;;;;;5.90;3.20;;;31.60;92.70;;;;;;2586750;54;20045;31
2023/07/17 12:03:27;;;;;;;6.20;3.00;;;31.40;91.80;;;;;;2586616;54;20859;31
2023/07/17 12:06:10;;;;;;;6.35;3.60;;;31.30;91.10;;;;;;2586904;54;19935;31
2023/07/17 12:08:47;;;;;;;5.37;3.10;;;31.20;90.60;;;;;;2586757;54;20029;31
2023/07/17 12:11:25;;;;;;;4.55;2.95;;;31.00;91.00;;;;;;2586659;54;20947;31
2023/07/17 12:13:58;;;;;;;5.85;2.90;;;30.90;90.40;;;;;;2586350;54;20035;31
2023/07/17 12:16:32;;;;;;;5.28;3.13;;;30.80;91.80;;;;;;2585865;54;19946;31
2023/07/17 12:19:08;;;;;;;5.40;3.30;;;30.80;91.60;;;;;;2586624;54;19961;31
2023/07/17 12:21:48;;;;;;;7.22;3.40;;;30.90;91.90;;;;;;2586760;54;20026;31
2023/07/17 12:24:22;;;;;;;5.30;3.05;;;31.00;90.80;;;;;;2586719;54;20836;31
2023/07/17 12:26:57;;;;;;;7.57;3.25;;;31.00;91.30;;;;;;2605128;46;20783;31
2023/07/17 12:29:34;;;;;;;6.57;3.20;;;31.00;90.70;;;;;;2585849;54;20870;31
2023/07/17 12:32:10;;;;;;;8.05;3.25;;;30.90;89.80;;;;;;2605168;46;20821;31
2023/07/17 12:34:45;;;;;;;8.60;3.45;;;30.90;89.90;;;;;;2586161;54;20043;31
2023/07/17 12:37:24;;;;;;;6.15;3.30;;;30.80;90.20;;;;;;2586923;54;20969;31
2023/07/17 12:40:01;;;;;;;7.13;3.22;;;30.80;90.30;;;;;;2586859;54;20945;31
2023/07/17 12:42:41;;;;;;;7.55;3.30;;;30.70;90.50;;;;;;2586341;54;20023;31
2023/07/17 12:45:24;;;;;;;4.70;3.60;;;30.60;89.40;;;;;;2605514;46;20739;31
2023/07/17 12:48:00;;;;;;;5.00;3.38;;;30.60;91.00;;;;;;2586610;54;20885;31
2023/07/17 12:50:36;;;;;;;5.13;3.35;;;30.50;91.20;;;;;;2586914;54;20816;31
2023/07/17 12:53:15;;;;;;;4.80;3.10;;;30.40;90.30;;;;;;2586650;54;20137;31
2023/07/17 12:55:52;;;;;;;7.00;3.25;;;30.30;90.80;;;;;;2586554;54;20936;31
2023/07/17 12:58:47;;;;;;;4.65;3.33;;;30.20;90.60;;;;;;2586596;54;20800;31
2023/07/17 13:01:25;;;;;;;4.67;3.37;;;30.10;91.10;;;;;;2604954;46;20034;31
2023/07/17 13:04:02;;;;;;;5.30;3.15;;;30.10;91.60;;;;;;2604835;46;20250;31
2023/07/17 13:06:37;;;;;;;5.00;3.55;;;30.00;90.90;;;;;;2604909;46;20892;31
2023/07/17 13:09:16;;;;;;;5.22;3.40;;;30.00;90.40;;;;;;2586753;54;20925;31
2023/07/17 13:11:50;;;;;;;5.97;3.22;;;29.90;91.30;;;;;;2684369;39;21648;31
2023/07/17 13:14:27;;;;;;;6.50;3.40;;;29.80;90.50;;;;;;2604442;46;21011;31
2023/07/17 13:17:04;;;;;;;5.53;3.00;;;29.70;91.00;;;;;;2586344;54;21254;31
2023/07/17 13:19:40;;;;;;;6.10;3.22;;;29.70;90.70;;;;;;2586421;54;20246;31
2023/07/17 13:22:15;;;;;;;5.97;3.47;;;29.60;90.60;;;;;;2586443;54;20104;31
2023/07/17 13:24:58;;;;;;;7.53;3.70;;;29.70;91.00;;;;;;2586530;54;20887;31
2023/07/17 13:27:33;;;;;;;7.70;3.95;;;29.70;90.20;;;;;;2605106;46;20030;31
2023/07/17 13:30:15;;;;;;;4.63;3.58;;;29.80;90.70;;;;;;2586537;54;20874;31
2023/07/17 13:32:53;;;;;;;9.65;3.17;;;30.00;90.60;;;;;;2586134;54;20026;31
2023/07/17 13:35:29;;;;;;;5.10;2.83;;;30.10;90.10;;;;;;2586056;54;20044;31
2023/07/17 13:38:02;;;;;;;;;;;30.20;89.50;;;;;;2586740;54;20035;31
2023/07/17 13:40:40;;;;;;;6.23;3.10;;;30.20;89.80;;;;;;2585941;54;19991;31
2023/07/17 13:43:16;;;;;;;6.15;3.15;;;30.10;88.20;;;;;;2586221;54;20034;31
2023/07/17 13:45:53;;;;;;;6.20;3.65;;;30.10;88.70;;;;;;2586054;54;20045;31
2023/07/17 13:48:29;;;;;;;5.70;3.25;;;30.00;87.00;;;;;;2586389;54;20838;31
2023/07/17 13:51:04;;;;;;;4.75;3.42;;;30.00;88.30;;;;;;2604911;46;20859;31
2023/07/17 13:53:39;;;;;;;6.93;3.42;;;30.00;87.40;;;;;;2586334;54;20033;31
2023/07/17 13:56:18;;;;;;;6.90;3.80;;;30.10;85.80;;;;;;2586264;54;20971;31
2023/07/17 13:58:58;;;;;;;10.07;3.75;;;30.10;86.00;;;;;;2587347;46;21380;31
2023/07/17 14:01:34;;;;;;;7.07;3.97;;;30.10;86.30;;;;;;2585288;54;20962;31
2023/07/17 14:04:14;;;;;;;3.90;2.85;;;30.20;85.80;;;;;;2584992;54;20688;31
2023/07/17 14:06:50;;;;;;;8.50;3.67;;;30.20;83.80;;;;;;2586274;54;20919;31
2023/07/17 14:09:28;;;;;;;5.23;3.00;;;30.30;84.60;;;;;;2586387;54;20032;31
2023/07/17 14:12:09;;;;;;;7.93;3.88;;;30.30;83.60;;;;;;2585467;54;20031;31
2023/07/17 14:14:43;;;;;;;6.30;3.50;;;30.30;83.90;;;;;;2586107;54;20049;31
2023/07/17 14:17:21;;;;;;;5.10;3.47;;;30.30;81.70;;;;;;2604597;46;21112;31
2023/07/17 14:19:58;;;;;;;5.32;3.60;;;30.30;80.70;;;;;;2585388;54;20875;31
2023/07/17 14:22:33;;;;;;;5.47;3.20;;;30.10;86.10;;;;;;2585392;54;19930;31
2023/07/17 14:25:15;;;;;;;6.17;3.23;;;27.00;81.20;;;;;;2585492;54;20961;31
2023/07/17 14:27:56;;;;;;;5.47;3.67;;;30.00;81.00;;;;;;2586234;54;20235;31